createdAt,value
2023-10-06T00:00:24.597Z,100056.03
2023-10-06T00:02:58.389Z,100055.38
2023-10-06T00:05:25.001Z,100042.22
2023-10-06T00:07:54.438Z,100037.72
2023-10-06T00:10:20.999Z,100030.84
2023-10-06T00:12:48.185Z,100039.47
2023-10-06T00:15:15.399Z,100061.78
2023-10-06T00:17:41.970Z,100067.38
2023-10-06T00:20:11.988Z,100072.94
2023-10-06T00:22:38.578Z,100076.34
2023-10-06T00:25:05.061Z,100075.56
2023-10-06T00:27:32.889Z,100072.13
2023-10-06T00:30:00.355Z,100068.47
2023-10-06T00:32:27.120Z,100056.16
2023-10-06T00:34:58.700Z,100050.59
2023-10-06T00:37:25.136Z,100051.88
2023-10-06T00:39:54.176Z,100044.47
2023-10-06T00:42:22.102Z,100039.56
2023-10-06T00:44:48.922Z,100031.34
2023-10-06T00:47:15.688Z,100032.03
2023-10-06T00:49:42.665Z,100032.63
2023-10-06T00:52:12.235Z,100035.66
2023-10-06T00:54:42.181Z,100038.47
2023-10-06T00:57:10.474Z,100034.22
2023-10-06T00:59:37.048Z,100044.59
2023-10-06T01:02:05.095Z,100059.03
2023-10-06T01:04:31.640Z,100046.31
2023-10-06T01:06:58.099Z,100050.09
2023-10-06T01:09:24.582Z,100033.19
2023-10-06T01:11:52.435Z,100021.19
2023-10-06T01:14:21.719Z,100019.53
2023-10-06T01:16:48.763Z,100011.41
2023-10-06T01:19:15.193Z,100005.97
2023-10-06T01:21:48.000Z,100003.63
2023-10-06T01:24:18.535Z,99996.63
2023-10-06T01:26:45.572Z,99990.34
2023-10-06T01:29:12.775Z,99988.78
2023-10-06T01:31:50.226Z,100000.53
2023-10-06T01:34:16.838Z,99997.03
2023-10-06T01:36:43.528Z,99995.47
2023-10-06T01:39:10.467Z,99991.72
2023-10-06T01:41:37.719Z,99989.19
2023-10-06T01:44:04.406Z,99981.94
2023-10-06T01:46:30.990Z,99982.50
2023-10-06T01:48:58.400Z,99965.59
2023-10-06T01:51:24.803Z,99961.69
2023-10-06T01:53:51.778Z,99965.75
2023-10-06T01:56:19.435Z,99964.75
2023-10-06T01:58:45.860Z,99963.38
2023-10-06T02:01:13.568Z,99963.22
2023-10-06T02:03:41.679Z,99976.34
2023-10-06T02:06:10.331Z,99984.31
2023-10-06T02:08:36.767Z,99999.94
2023-10-06T02:11:03.441Z,100005.66
2023-10-06T02:13:30.069Z,100021.75
2023-10-06T02:15:57.283Z,100027.34
2023-10-06T02:18:25.248Z,100033.91
2023-10-06T02:20:51.712Z,100041.72
2023-10-06T02:23:19.850Z,100033.19
2023-10-06T02:25:48.950Z,100043.78
2023-10-06T02:28:15.289Z,100043.50
2023-10-06T02:30:41.759Z,100039.31
2023-10-06T02:33:08.954Z,100037.38
2023-10-06T02:35:40.823Z,100035.94
2023-10-06T02:38:10.583Z,100032.19
2023-10-06T02:40:37.064Z,100031.47
2023-10-06T02:43:04.040Z,100035.09
2023-10-06T02:45:33.726Z,100016.06
2023-10-06T02:48:00.188Z,99991.38
2023-10-06T02:50:27.250Z,99982.50
2023-10-06T02:52:55.474Z,99969.78
2023-10-06T02:55:21.900Z,99971.72
2023-10-06T02:57:52.671Z,99962.78
2023-10-06T03:00:22.183Z,99959.19
2023-10-06T03:02:49.760Z,99963.66
2023-10-06T03:05:16.882Z,99968.69
2023-10-06T03:07:43.994Z,99988.19
2023-10-06T03:10:11.751Z,99983.16
2023-10-06T03:12:39.476Z,99986.50
2023-10-06T03:15:10.022Z,99988.16
2023-10-06T03:17:36.547Z,99985.97
2023-10-06T03:20:04.618Z,99989.84
2023-10-06T03:22:31.078Z,99990.44
2023-10-06T03:24:57.822Z,100002.34
2023-10-06T03:27:29.260Z,100010.88
2023-10-06T03:29:55.864Z,100017.84
2023-10-06T03:32:27.245Z,100022.28
2023-10-06T03:34:54.011Z,100016.38
2023-10-06T03:37:20.531Z,100014.63
2023-10-06T03:39:46.949Z,100030.81
2023-10-06T03:42:13.684Z,100028.50
2023-10-06T03:44:40.449Z,100021.53
2023-10-06T03:47:07.042Z,100021.28
2023-10-06T03:49:33.589Z,100017.91
2023-10-06T03:52:00.100Z,100010.09
2023-10-06T03:54:28.898Z,100007.31
2023-10-06T03:56:56.212Z,100001.88
2023-10-06T03:59:23.091Z,99996.84
2023-10-06T04:01:50.758Z,99992.94
2023-10-06T04:04:18.998Z,99995.59
2023-10-06T04:06:49.833Z,99991.03
2023-10-06T04:09:16.147Z,99994.50
2023-10-06T04:11:48.578Z,100002.28
2023-10-06T04:14:14.984Z,100000.47
2023-10-06T04:16:42.163Z,99993.63
2023-10-06T04:19:08.778Z,99996.56
2023-10-06T04:21:38.155Z,99996.19
2023-10-06T04:24:04.929Z,99997.28
2023-10-06T04:26:32.649Z,100007.50
2023-10-06T04:28:59.122Z,99999.94
2023-10-06T04:31:27.697Z,99991.97
2023-10-06T04:33:54.177Z,99983.06
2023-10-06T04:36:20.692Z,99976.78
2023-10-06T04:38:47.675Z,99972.88
2023-10-06T04:41:15.791Z,99975.50
2023-10-06T04:43:44.617Z,99964.78
2023-10-06T04:46:12.263Z,99959.88
2023-10-06T04:48:38.956Z,99959.03
2023-10-06T04:51:10.797Z,99946.78
2023-10-06T04:53:37.751Z,99952.59
2023-10-06T04:56:07.718Z,99955.38
2023-10-06T04:58:37.280Z,99948.69
2023-10-06T05:01:04.980Z,99953.28
2023-10-06T05:03:32.406Z,99947.25
2023-10-06T05:05:59.388Z,99942.09
2023-10-06T05:08:26.438Z,99944.28
2023-10-06T05:10:54.589Z,99942.34
2023-10-06T05:13:21.213Z,99935.81
2023-10-06T05:15:47.972Z,99942.34
2023-10-06T05:18:14.372Z,99947.38
2023-10-06T05:20:42.218Z,99947.63
2023-10-06T05:23:08.869Z,99945.28
2023-10-06T05:25:44.233Z,99946.13
2023-10-06T05:28:10.780Z,99949.13
2023-10-06T05:30:39.326Z,99948.94
2023-10-06T05:33:07.146Z,99946.34
2023-10-06T05:35:35.688Z,99919.25
2023-10-06T05:38:09.740Z,99920.22
2023-10-06T05:40:36.780Z,99907.94
2023-10-06T05:43:05.685Z,99877.28
2023-10-06T05:45:38.580Z,99877.84
2023-10-06T05:48:05.898Z,99883.53
2023-10-06T05:50:36.797Z,99876.47
2023-10-06T05:53:05.089Z,99884.69
2023-10-06T05:55:35.130Z,99905.34
2023-10-06T05:58:03.143Z,99902.56
2023-10-06T06:00:30.927Z,99920.28
2023-10-06T06:03:01.697Z,99931.16
2023-10-06T06:05:35.781Z,99946.09
2023-10-06T06:08:04.048Z,99972.31
2023-10-06T06:10:30.585Z,99997.72
2023-10-06T06:13:01.374Z,100023.97
2023-10-06T06:15:28.589Z,100045.63
2023-10-06T06:17:55.375Z,100061.84
2023-10-06T06:20:23.193Z,100091.69
2023-10-06T06:22:50.108Z,100085.00
2023-10-06T06:25:16.929Z,100083.63
2023-10-06T06:27:43.631Z,100098.72
2023-10-06T06:30:11.601Z,100122.94
2023-10-06T06:32:38.473Z,100136.00
2023-10-06T06:35:05.468Z,100145.56
2023-10-06T06:37:34.409Z,100164.41
2023-10-06T06:40:02.336Z,100184.56
2023-10-06T06:42:28.732Z,100212.56
2023-10-06T06:44:57.159Z,100230.63
2023-10-06T06:47:25.388Z,100237.00
2023-10-06T06:49:53.517Z,100235.94
2023-10-06T06:52:22.038Z,100246.00
2023-10-06T06:54:53.346Z,100256.44
2023-10-06T06:57:19.872Z,100250.25
2023-10-06T06:59:46.882Z,100255.31
2023-10-06T07:02:36.478Z,100265.13
2023-10-06T07:05:03.284Z,100283.09
2023-10-06T07:07:29.933Z,100287.31
2023-10-06T07:09:57.428Z,100305.47
2023-10-06T07:12:26.837Z,100305.94
2023-10-06T07:14:53.253Z,100320.50
2023-10-06T07:17:19.802Z,100343.16
2023-10-06T07:19:48.466Z,100341.22
2023-10-06T07:22:15.119Z,100347.25
2023-10-06T07:24:44.059Z,100352.56
2023-10-06T07:27:10.613Z,100373.13
2023-10-06T07:29:37.687Z,100369.53
2023-10-06T07:32:04.833Z,100379.66
2023-10-06T07:34:32.283Z,100379.06
2023-10-06T07:36:59.308Z,100377.72
2023-10-06T07:39:26.058Z,100379.69
2023-10-06T07:41:54.958Z,100383.19
2023-10-06T07:44:25.154Z,100389.75
2023-10-06T07:46:51.972Z,100376.72
2023-10-06T07:49:20.272Z,100359.53
2023-10-06T07:51:47.046Z,100356.41
2023-10-06T07:54:15.600Z,100359.53
2023-10-06T07:56:44.621Z,100352.84
2023-10-06T07:59:11.381Z,100361.03
2023-10-06T08:01:38.054Z,100367.97
2023-10-06T08:04:04.825Z,100468.03
2023-10-06T08:06:33.165Z,100456.69
2023-10-06T08:09:00.287Z,100459.72
2023-10-06T08:11:27.171Z,100438.88
2023-10-06T08:13:53.890Z,100453.31
2023-10-06T08:16:21.861Z,100431.13
2023-10-06T08:18:48.746Z,100406.09
2023-10-06T08:21:18.152Z,100396.84
2023-10-06T08:23:46.309Z,100385.22
2023-10-06T08:26:14.103Z,100374.59
2023-10-06T08:28:40.724Z,100356.06
2023-10-06T08:31:17.592Z,100322.34
2023-10-06T08:33:44.675Z,100316.84
2023-10-06T08:36:11.209Z,100311.31
2023-10-06T08:38:38.258Z,100300.78
2023-10-06T08:41:05.070Z,100280.16
2023-10-06T08:43:32.194Z,100231.91
2023-10-06T08:46:02.011Z,100193.00
2023-10-06T08:48:33.769Z,100205.78
2023-10-06T08:51:01.516Z,100193.91
2023-10-06T08:53:33.981Z,100231.59
2023-10-06T08:56:00.684Z,100257.03
2023-10-06T08:58:27.747Z,100242.88
2023-10-06T09:00:58.863Z,100247.09
2023-10-06T09:03:28.196Z,100226.28
2023-10-06T09:05:57.465Z,100212.28
2023-10-06T09:08:27.663Z,100194.88
2023-10-06T09:10:55.178Z,100178.69
2023-10-06T09:13:22.800Z,100190.75
2023-10-06T09:16:01.995Z,100175.31
2023-10-06T09:18:30.950Z,100180.22
2023-10-06T09:21:32.044Z,100146.81
2023-10-06T09:24:14.690Z,100129.28
2023-10-06T09:26:41.444Z,100122.72
2023-10-06T09:29:09.216Z,100124.66
2023-10-06T09:31:40.417Z,100090.66
2023-10-06T09:34:16.014Z,100102.69
2023-10-06T09:36:46.268Z,100074.91
2023-10-06T09:39:13.746Z,100066.50
2023-10-06T09:41:43.210Z,100046.69
2023-10-06T09:44:12.107Z,100028.91
2023-10-06T09:46:41.755Z,100006.16
2023-10-06T09:49:11.310Z,99993.72
2023-10-06T09:51:40.767Z,99969.63
2023-10-06T09:54:08.176Z,99984.81
2023-10-06T09:56:35.032Z,99995.91
2023-10-06T09:59:04.781Z,99998.13
2023-10-06T10:01:34.341Z,99979.13
2023-10-06T10:04:02.682Z,99972.72
2023-10-06T10:06:29.908Z,99964.41
2023-10-06T10:09:00.289Z,99941.25
2023-10-06T10:11:36.652Z,99939.22
2023-10-06T10:14:15.334Z,99918.34
2023-10-06T10:17:05.902Z,99921.84
2023-10-06T10:19:33.261Z,99923.34
2023-10-06T10:22:00.812Z,99901.03
2023-10-06T10:26:56.722Z,99867.00
2023-10-06T10:29:25.365Z,99861.13
2023-10-06T10:32:08.362Z,99842.31
2023-10-06T10:34:35.220Z,99842.25
2023-10-06T10:37:08.888Z,99833.00
2023-10-06T10:39:52.740Z,99809.56
2023-10-06T10:42:24.264Z,99804.25
2023-10-06T10:45:12.401Z,99794.84
2023-10-06T10:47:39.989Z,99792.72
2023-10-06T10:50:07.253Z,99758.38
2023-10-06T10:52:34.121Z,99757.72
2023-10-06T10:55:01.464Z,99752.84
2023-10-06T10:57:28.055Z,99740.28
2023-10-06T11:00:00.739Z,99739.78
2023-10-06T11:02:56.731Z,99736.44
2023-10-06T11:05:24.524Z,99729.28
2023-10-06T11:08:04.756Z,99724.16
2023-10-06T11:10:32.971Z,99720.31
2023-10-06T11:13:20.107Z,99716.19
2023-10-06T11:15:47.662Z,99709.84
2023-10-06T11:18:14.819Z,99691.34
2023-10-06T11:20:50.761Z,99689.53
2023-10-06T11:23:17.304Z,99675.31
2023-10-06T11:25:55.845Z,99667.44
2023-10-06T11:28:26.393Z,99662.97
2023-10-06T11:33:35.357Z,99656.06
2023-10-06T11:36:07.137Z,99660.53
2023-10-06T11:38:35.711Z,99642.41
2023-10-06T11:41:05.969Z,99651.09
2023-10-06T11:43:33.397Z,99640.75
2023-10-06T11:46:04.611Z,99634.03
2023-10-06T11:48:35.658Z,99634.63
2023-10-06T11:51:04.248Z,99635.91
2023-10-06T11:53:31.106Z,99629.91
2023-10-06T11:56:09.582Z,99633.56
2023-10-06T11:58:39.312Z,99619.06
2023-10-06T12:01:06.409Z,99615.75
2023-10-06T12:03:38.810Z,99616.56
2023-10-06T12:06:06.918Z,99616.81
2023-10-06T12:08:33.788Z,99618.06
2023-10-06T12:11:00.362Z,99617.16
2023-10-06T12:13:26.884Z,99613.41
2023-10-06T12:15:54.133Z,99619.38
2023-10-06T12:18:20.858Z,99611.13
2023-10-06T12:20:47.991Z,99611.19
2023-10-06T12:23:14.619Z,99612.03
2023-10-06T12:25:41.417Z,99617.00
2023-10-06T12:28:08.463Z,99613.19
2023-10-06T12:30:34.955Z,99605.41
2023-10-06T12:33:08.819Z,99608.53
2023-10-06T12:35:37.806Z,99609.56
2023-10-06T12:38:04.635Z,99601.28
2023-10-06T12:40:39.842Z,99598.84
2023-10-06T12:43:06.232Z,99594.66
2023-10-06T12:45:32.778Z,99591.94
2023-10-06T12:48:02.160Z,99584.88
2023-10-06T12:50:29.036Z,99591.34
2023-10-06T12:52:55.391Z,99582.25
2023-10-06T12:55:22.436Z,99580.03
2023-10-06T12:57:50.597Z,99576.81
2023-10-06T13:00:19.715Z,99567.38
2023-10-06T13:02:48.146Z,99570.53
2023-10-06T13:05:16.576Z,99562.88
2023-10-06T13:07:44.635Z,99563.03
2023-10-06T13:10:11.308Z,99565.81
2023-10-06T13:12:38.790Z,99560.06
2023-10-06T13:15:16.840Z,99562.94
2023-10-06T13:17:43.552Z,99559.81
2023-10-06T13:20:11.671Z,99565.47
2023-10-06T13:22:39.603Z,99560.66
2023-10-06T13:25:07.454Z,99563.09
2023-10-06T13:27:34.865Z,99562.72
2023-10-06T13:30:01.936Z,99557.44
2023-10-06T13:32:33.112Z,99552.75
2023-10-06T13:35:04.153Z,99558.66
2023-10-06T13:37:34.537Z,99552.09
2023-10-06T13:40:04.000Z,99555.63
2023-10-06T13:42:30.959Z,99552.75
2023-10-06T13:44:59.872Z,99547.31
2023-10-06T13:47:26.919Z,99553.13
2023-10-06T13:49:53.636Z,99538.13
2023-10-06T13:52:21.887Z,99537.44
2023-10-06T13:54:48.328Z,99540.38
2023-10-06T13:57:14.865Z,99544.34
2023-10-06T13:59:41.797Z,99539.06
2023-10-06T14:02:08.491Z,99531.88
2023-10-06T14:04:37.613Z,99533.28
2023-10-06T14:07:07.360Z,99528.34
2023-10-06T14:09:34.694Z,99520.66
2023-10-06T14:12:04.394Z,99524.66
2023-10-06T14:14:35.306Z,99523.59
2023-10-06T14:17:04.589Z,99512.59
2023-10-06T14:19:32.510Z,99513.50
2023-10-06T14:22:00.645Z,99504.81
2023-10-06T14:24:27.426Z,99510.19
2023-10-06T14:26:57.074Z,99510.19
2023-10-06T14:29:23.586Z,99502.53
2023-10-06T14:31:50.677Z,99502.72
2023-10-06T14:34:17.533Z,99500.00
2023-10-06T14:36:44.428Z,99496.81
2023-10-06T14:39:11.481Z,99494.50
2023-10-06T14:41:38.645Z,99497.03
2023-10-06T14:44:05.658Z,99489.03
2023-10-06T14:46:38.599Z,99491.69
2023-10-06T14:49:10.638Z,99491.63
2023-10-06T14:51:39.151Z,99496.44
2023-10-06T14:54:07.066Z,99491.63
2023-10-06T14:56:35.644Z,99484.97
2023-10-06T14:59:02.529Z,99478.78
2023-10-06T15:01:29.577Z,99477.47
2023-10-06T15:03:56.190Z,99484.41
2023-10-06T15:06:25.735Z,99487.03
2023-10-06T15:08:52.580Z,99486.25
2023-10-06T15:11:19.557Z,99478.38
2023-10-06T15:13:51.091Z,99485.66
2023-10-06T15:16:21.172Z,99476.59
2023-10-06T15:18:49.595Z,99479.78
2023-10-06T15:21:19.622Z,99484.41
2023-10-06T15:23:46.632Z,99488.06
2023-10-06T15:26:13.243Z,99481.88
2023-10-06T15:28:41.710Z,99481.66
2023-10-06T15:31:12.625Z,99473.44
2023-10-06T15:33:39.426Z,99478.88
2023-10-06T15:36:06.487Z,99477.00
2023-10-06T15:38:33.965Z,99473.63
2023-10-06T15:41:07.993Z,99473.41
2023-10-06T15:43:39.522Z,99474.81
2023-10-06T15:46:08.815Z,99483.72
2023-10-06T15:48:41.034Z,99477.38
2023-10-06T15:51:11.507Z,99470.06
2023-10-06T15:53:43.969Z,99479.50
2023-10-06T15:56:12.555Z,99485.59
2023-10-06T15:58:39.521Z,99484.41
2023-10-06T16:01:07.368Z,99486.63
2023-10-06T16:03:34.354Z,99488.97
2023-10-06T16:06:01.748Z,99488.03
2023-10-06T16:08:29.919Z,99492.47
2023-10-06T16:11:03.259Z,99491.91
2023-10-06T16:13:31.248Z,99497.16
2023-10-06T16:16:11.279Z,99494.56
2023-10-06T16:18:39.224Z,99508.84
2023-10-06T16:21:05.640Z,99512.13
2023-10-06T16:23:32.626Z,99513.78
2023-10-06T16:25:59.160Z,99517.59
2023-10-06T16:28:25.676Z,99511.00
2023-10-06T16:30:57.985Z,99518.13
2023-10-06T16:33:25.072Z,99515.28
2023-10-06T16:35:51.946Z,99521.84
2023-10-06T16:38:18.792Z,99522.50
2023-10-06T16:40:49.012Z,99523.84
2023-10-06T16:43:23.027Z,99526.88
2023-10-06T16:45:49.936Z,99525.06
2023-10-06T16:48:16.937Z,99536.78
2023-10-06T16:50:43.818Z,99541.63
2023-10-06T16:53:13.792Z,99546.28
2023-10-06T16:55:40.884Z,99555.66
2023-10-06T16:58:07.747Z,99565.53
2023-10-06T17:00:36.043Z,99578.03
2023-10-06T17:03:02.802Z,99584.28
2023-10-06T17:05:30.049Z,99590.34
2023-10-06T17:07:58.360Z,99601.19
2023-10-06T17:10:25.876Z,99620.53
2023-10-06T17:12:53.694Z,99605.91
2023-10-06T17:15:24.486Z,99600.09
2023-10-06T17:17:51.960Z,99623.41
2023-10-06T17:20:18.970Z,99640.53
2023-10-06T17:22:46.236Z,99641.34
2023-10-06T17:25:14.363Z,99651.38
2023-10-06T17:27:41.279Z,99657.19
2023-10-06T17:30:08.485Z,99660.13
2023-10-06T17:32:35.248Z,99655.13
2023-10-06T17:35:02.182Z,99656.13
2023-10-06T17:37:31.091Z,99653.00
2023-10-06T17:39:57.979Z,99656.09
2023-10-06T17:42:25.187Z,99662.38
2023-10-06T17:44:55.426Z,99665.94
2023-10-06T17:49:52.294Z,99696.09
2023-10-06T17:52:23.941Z,99710.84
2023-10-06T17:54:53.878Z,99724.59
2023-10-06T17:57:24.051Z,99735.34
2023-10-06T17:59:53.325Z,99746.16
2023-10-06T18:02:20.992Z,99762.16
2023-10-06T18:04:48.010Z,99789.91
2023-10-06T18:07:16.796Z,99815.59
2023-10-06T18:09:43.599Z,99831.34
2023-10-06T18:12:24.806Z,99846.25
2023-10-06T18:14:52.814Z,99875.25
2023-10-06T18:17:19.391Z,99884.94
2023-10-06T18:19:46.038Z,99893.63
2023-10-06T18:22:14.015Z,99911.44
2023-10-06T18:24:42.214Z,99941.22
2023-10-06T18:27:11.864Z,99944.94
2023-10-06T18:29:38.620Z,99964.75
2023-10-06T18:32:05.722Z,99987.28
2023-10-06T18:34:32.624Z,100000.25
2023-10-06T18:36:59.265Z,100023.59
2023-10-06T18:39:27.248Z,100023.69
2023-10-06T18:41:55.333Z,100038.75
2023-10-06T18:44:21.948Z,100042.59
2023-10-06T18:46:48.938Z,100053.03
2023-10-06T18:49:16.094Z,100058.09
2023-10-06T18:51:44.572Z,100076.56
2023-10-06T18:54:11.241Z,100110.81
2023-10-06T18:56:39.209Z,100158.63
2023-10-06T18:59:06.350Z,100183.31
2023-10-06T19:01:36.518Z,100216.66
2023-10-06T19:04:05.300Z,100250.34
2023-10-06T19:06:33.684Z,100265.03
2023-10-06T19:09:00.467Z,100273.56
2023-10-06T19:11:27.038Z,100272.47
2023-10-06T19:13:53.836Z,100272.53
2023-10-06T19:16:20.578Z,100289.72
2023-10-06T19:18:50.031Z,100285.63
2023-10-06T19:21:17.316Z,100285.28
2023-10-06T19:23:44.196Z,100258.84
2023-10-06T19:26:11.136Z,100261.06
2023-10-06T19:28:39.143Z,100273.69
2023-10-06T19:31:05.839Z,100263.84
2023-10-06T19:33:32.274Z,100336.94
2023-10-06T19:36:04.215Z,100360.91
2023-10-06T19:38:33.146Z,100321.44
2023-10-06T19:41:00.099Z,100352.63
2023-10-06T19:43:28.045Z,100360.38
2023-10-06T19:45:54.574Z,100393.56
2023-10-06T19:48:20.999Z,100387.53
2023-10-06T19:50:47.753Z,100381.56
2023-10-06T19:53:14.469Z,100391.78
2023-10-06T19:55:42.513Z,100375.56
2023-10-06T19:58:11.415Z,100372.53
2023-10-06T20:00:42.402Z,100375.25
2023-10-06T20:03:09.369Z,100380.25
2023-10-06T20:05:41.859Z,100386.44
2023-10-06T20:08:08.766Z,100404.38
2023-10-06T20:10:37.333Z,100403.19
2023-10-06T20:13:05.409Z,100441.34
2023-10-06T20:15:33.648Z,100471.50
2023-10-06T20:18:01.184Z,100467.44
2023-10-06T20:20:29.137Z,100456.56
2023-10-06T20:22:58.455Z,100457.56
2023-10-06T20:25:25.417Z,100468.75
2023-10-06T20:27:52.935Z,100474.91
2023-10-06T20:30:21.799Z,100488.97
2023-10-06T20:32:51.490Z,100507.38
2023-10-06T20:35:18.026Z,100523.78
2023-10-06T20:37:45.079Z,100569.28
2023-10-06T20:40:12.577Z,100609.53
2023-10-06T20:42:39.080Z,100640.78
2023-10-06T20:45:06.666Z,100666.09
2023-10-06T20:47:33.203Z,100685.78
2023-10-06T20:50:03.188Z,100690.53
2023-10-06T20:52:29.797Z,100719.22
2023-10-06T20:54:56.469Z,100737.72
2023-10-06T20:57:23.438Z,100752.25
2023-10-06T20:59:49.921Z,100749.78
2023-10-06T21:02:16.390Z,100743.91
2023-10-06T21:04:45.947Z,100742.84
2023-10-06T21:07:12.466Z,100772.63
2023-10-06T21:09:39.456Z,100779.97
2023-10-06T21:12:06.759Z,100787.81
2023-10-06T21:14:33.242Z,100784.31
2023-10-06T21:16:59.681Z,100785.28
2023-10-06T21:19:26.196Z,100814.59
2023-10-06T21:21:55.584Z,100839.53
2023-10-06T21:24:22.213Z,100862.81
2023-10-06T21:26:49.002Z,100850.81
2023-10-06T21:29:15.709Z,100834.84
2023-10-06T21:31:42.119Z,100838.31
2023-10-06T21:34:08.846Z,100878.25
2023-10-06T21:36:36.083Z,100900.53
2023-10-06T21:39:02.609Z,100925.69
2023-10-06T21:41:29.312Z,100943.53
2023-10-06T21:43:56.034Z,100959.84
2023-10-06T21:46:22.546Z,100973.75
2023-10-06T21:48:49.218Z,100986.69
2023-10-06T21:51:15.571Z,100982.59
2023-10-06T21:53:41.958Z,100982.75
2023-10-06T21:56:09.722Z,100982.47
2023-10-06T21:58:36.492Z,100962.38
2023-10-06T22:01:03.304Z,100961.69
2023-10-06T22:03:30.018Z,100940.44
2023-10-06T22:05:56.783Z,100943.13
2023-10-06T22:08:23.202Z,100952.41
2023-10-06T22:10:50.082Z,100958.31
2023-10-06T22:13:16.740Z,100971.78
2023-10-06T22:15:43.836Z,100980.22
2023-10-06T22:18:10.375Z,100977.53
2023-10-06T22:20:36.890Z,100972.19
2023-10-06T22:23:03.671Z,100981.72
2023-10-06T22:25:30.115Z,100980.59
2023-10-06T22:27:56.920Z,100998.88
2023-10-06T22:30:24.299Z,100991.97
2023-10-06T22:32:51.622Z,100999.34
2023-10-06T22:35:18.135Z,101005.94
2023-10-06T22:37:44.647Z,101005.09
2023-10-06T22:40:12.072Z,101028.38
2023-10-06T22:42:38.585Z,101027.59
2023-10-06T22:45:05.707Z,101013.00
2023-10-06T22:47:32.106Z,100998.22
2023-10-06T22:49:59.160Z,101000.56
2023-10-06T22:52:25.613Z,101012.19
2023-10-06T22:54:53.388Z,101014.00
2023-10-06T22:57:19.740Z,101022.53
2023-10-06T22:59:50.551Z,101023.66
2023-10-06T23:02:18.278Z,101028.28
2023-10-06T23:04:45.121Z,101019.75
2023-10-06T23:07:13.822Z,101013.00
2023-10-06T23:09:43.636Z,101004.41
2023-10-06T23:12:10.056Z,100996.56
2023-10-06T23:14:36.431Z,101008.06
2023-10-06T23:17:03.171Z,101016.75
2023-10-06T23:19:29.759Z,101032.81
2023-10-06T23:21:56.354Z,101028.56
2023-10-06T23:24:22.869Z,101020.00
2023-10-06T23:26:49.242Z,101028.41
2023-10-06T23:29:15.633Z,101027.03
2023-10-06T23:31:42.068Z,101020.63
2023-10-06T23:34:08.799Z,101005.09
2023-10-06T23:36:35.573Z,100985.78
2023-10-06T23:39:02.005Z,100985.41
2023-10-06T23:41:28.416Z,101004.09
2023-10-06T23:43:54.841Z,101025.78
2023-10-06T23:46:22.872Z,101037.41
2023-10-06T23:48:49.389Z,101039.72
2023-10-06T23:51:16.135Z,101047.03
2023-10-06T23:53:42.867Z,101050.78
2023-10-06T23:56:09.533Z,101056.94
2023-10-06T23:58:36.007Z,101053.03
